createdAt,value
2022-12-08T11:35:53.990Z,982.1
2022-12-08T11:41:16.268Z,982.2
2022-12-08T11:46:32.094Z,982.2
2022-12-08T11:51:51.117Z,982.1
2022-12-08T11:57:10.155Z,982
2022-12-08T12:02:29.689Z,981.9
2022-12-08T12:07:48.592Z,981.9
2022-12-08T12:13:07.997Z,981.9
2022-12-08T12:18:26.937Z,981.8
2022-12-08T12:23:45.820Z,981.9
2022-12-08T12:29:05.731Z,981.8
2022-12-08T12:34:24.552Z,981.9
2022-12-08T12:39:43.647Z,981.8
2022-12-08T12:45:02.890Z,981.8
2022-12-08T12:50:22.641Z,981.8
2022-12-08T12:55:41.779Z,981.8
2022-12-08T13:01:00.934Z,981.8
2022-12-08T13:06:20.342Z,981.8
2022-12-08T13:11:42.145Z,981.7
2022-12-08T13:16:59.028Z,981.6
2022-12-08T13:22:18.664Z,981.7
2022-12-08T13:27:38.385Z,981.6
2022-12-08T13:33:17.521Z,981.6
2022-12-08T13:38:16.480Z,981.6
2022-12-08T13:43:45.024Z,981.6
2022-12-08T13:55:19.969Z,981.6
2022-12-08T13:59:33.347Z,981.6
2022-12-08T14:05:17.268Z,981.6
2022-12-08T14:10:12.177Z,981.6
2022-12-08T14:15:35.659Z,981.6
2022-12-08T14:21:19.166Z,981.6
2022-12-08T14:26:10.505Z,981.5
2022-12-08T14:31:29.604Z,981.5
2022-12-08T14:36:48.543Z,981.5
2022-12-08T14:42:07.678Z,981.5
2022-12-08T14:47:26.827Z,981.4
2022-12-08T14:52:46.683Z,981.4
2022-12-08T14:58:05.100Z,981.5
2022-12-08T15:03:24.257Z,981.5
2022-12-08T15:03:51.332Z,981.5
2022-12-08T15:09:08.480Z,981.5
2022-12-08T15:14:28.147Z,981.6
2022-12-08T15:19:47.071Z,981.6
2022-12-08T15:25:05.854Z,981.6
2022-12-08T15:30:25.555Z,981.6
2022-12-08T15:35:44.867Z,981.6
2022-12-08T15:41:03.914Z,981.6
2022-12-08T15:46:23.280Z,981.5
2022-12-08T15:51:42.803Z,981.5
2022-12-08T15:57:18.967Z,981.6
2022-12-08T16:02:22.700Z,981.6
2022-12-08T16:07:40.733Z,981.5
2022-12-08T16:18:19.085Z,981.6
2022-12-08T16:23:43.385Z,981.6
2022-12-08T16:28:58.589Z,981.6
2022-12-08T16:34:18.306Z,981.6
2022-12-08T16:39:41.092Z,981.5
2022-12-08T16:44:56.312Z,981.6
2022-12-08T16:50:15.970Z,981.5
2022-12-08T16:55:35.737Z,981.5
2022-12-08T17:00:54.639Z,981.5
2022-12-08T17:06:13.382Z,981.5
2022-12-08T17:11:36.155Z,981.5
2022-12-08T17:16:52.644Z,981.5
2022-12-08T17:22:11.374Z,981.5
2022-12-08T17:27:30.817Z,981.4
2022-12-08T17:32:50.142Z,981.5
2022-12-08T17:38:09.687Z,981.5
2022-12-08T17:43:28.714Z,981.5
2022-12-08T17:48:48.313Z,981.5
2022-12-08T17:54:07.990Z,981.5
2022-12-08T17:59:27.455Z,981.5
2022-12-08T18:04:46.368Z,981.4
2022-12-08T18:10:15.022Z,981.4
2022-12-08T18:15:25.869Z,981.4
2022-12-08T18:20:45.614Z,981.4
2022-12-08T18:26:05.700Z,981.4
2022-12-08T18:31:25.007Z,981.3
2022-12-08T18:36:44.151Z,981.3
2022-12-08T18:42:03.514Z,981.3
2022-12-08T18:47:22.898Z,981.3
2022-12-08T18:52:42.262Z,981.3
2022-12-08T18:58:01.358Z,981.2
2022-12-08T19:03:19.876Z,981.1
2022-12-08T19:08:38.985Z,981.1
2022-12-08T19:13:58.528Z,981.2
2022-12-08T19:19:17.735Z,981.2
2022-12-08T19:24:37.340Z,981.2
2022-12-08T19:29:56.164Z,981.1
2022-12-08T19:35:15.370Z,981.2
2022-12-08T19:40:34.254Z,981.1
2022-12-08T19:45:53.750Z,981.1
2022-12-08T19:51:12.716Z,981
2022-12-08T19:56:32.035Z,981
2022-12-08T20:01:51.247Z,981
2022-12-08T20:07:10.703Z,980.9
2022-12-08T20:12:30.334Z,981
2022-12-08T20:17:49.786Z,981
2022-12-08T20:28:28.804Z,981.1
2022-12-08T20:33:48.316Z,981.2
2022-12-08T20:39:07.521Z,981.1
2022-12-08T20:55:06.171Z,981
2022-12-08T21:00:25.184Z,981
2022-12-08T21:05:42.429Z,981
2022-12-08T21:11:01.389Z,981.1
2022-12-08T21:16:21.264Z,981.1
2022-12-08T21:21:40.242Z,981.1
2022-12-08T21:26:59.926Z,981.1
2022-12-08T21:32:18.769Z,981.1
2022-12-08T21:37:38.405Z,981
2022-12-08T21:42:57.981Z,981
2022-12-08T21:48:17.482Z,981
2022-12-08T21:53:36.783Z,981
2022-12-08T21:58:56.229Z,981
